sensor_id;sensor_type;location;lat;lon;timestamp;pressure;altitude;pressure_sealevel;temperature;humidity
12793;BME280;6460;42.684;23.260;2022-08-21T19:02:21;93901.78;;;20.93;100.00
12793;BME280;6460;42.684;23.260;2022-08-21T19:04:49;93902.91;;;21.08;100.00
12793;BME280;6460;42.684;23.260;2022-08-21T19:07:16;93904.22;;;21.04;100.00
12793;BME280;6460;42.684;23.260;2022-08-21T19:09:44;93907.72;;;21.30;100.00
12793;BME280;6460;42.684;23.260;2022-08-21T19:12:15;93899.72;;;21.23;100.00
12793;BME280;6460;42.684;23.260;2022-08-21T19:14:43;93911.06;;;21.46;100.00
12793;BME280;6460;42.684;23.260;2022-08-21T19:17:11;93914.25;;;21.45;100.00
12793;BME280;6460;42.684;23.260;2022-08-21T19:19:40;93921.44;;;21.86;100.00
12793;BME280;6460;42.684;23.260;2022-08-21T19:22:07;93924.47;;;22.13;100.00
12793;BME280;6460;42.684;23.260;2022-08-21T19:24:35;93924.50;;;22.00;100.00
12793;BME280;6460;42.684;23.260;2022-08-21T19:27:02;93924.34;;;22.17;99.95
12793;BME280;6460;42.684;23.260;2022-08-21T19:29:28;93932.38;;;22.33;98.73
12793;BME280;6460;42.684;23.260;2022-08-21T19:31:55;93925.47;;;22.28;97.42
12793;BME280;6460;42.684;23.260;2022-08-21T19:34:25;93922.91;;;22.34;98.14
12793;BME280;6460;42.684;23.260;2022-08-21T19:36:54;93923.38;;;22.54;95.65
12793;BME280;6460;42.684;23.260;2022-08-21T19:39:22;93924.84;;;22.67;94.86
12793;BME280;6460;42.684;23.260;2022-08-21T19:41:53;93927.03;;;22.82;94.15
12793;BME280;6460;42.684;23.260;2022-08-21T19:44:23;93924.69;;;22.93;92.11
12793;BME280;6460;42.684;23.260;2022-08-21T19:46:51;93937.06;;;22.76;92.42
12793;BME280;6460;42.684;23.260;2022-08-21T19:49:21;93939.38;;;22.55;92.46
12793;BME280;6460;42.684;23.260;2022-08-21T19:51:50;93940.81;;;22.47;92.21
12793;BME280;6460;42.684;23.260;2022-08-21T19:54:20;93947.06;;;22.48;92.77
12793;BME280;6460;42.684;23.260;2022-08-21T19:56:47;93947.38;;;22.50;94.18
12793;BME280;6460;42.684;23.260;2022-08-21T19:59:16;93951.13;;;22.65;93.26
12793;BME280;6460;42.684;23.260;2022-08-21T20:01:44;93945.78;;;22.83;93.61
12793;BME280;6460;42.684;23.260;2022-08-21T20:04:11;93945.91;;;22.80;94.93
12793;BME280;6460;42.684;23.260;2022-08-21T20:06:38;93949.56;;;22.77;95.20
12793;BME280;6460;42.684;23.260;2022-08-21T20:09:06;93948.41;;;22.65;96.56
12793;BME280;6460;42.684;23.260;2022-08-21T20:11:38;93942.53;;;22.54;96.48
12793;BME280;6460;42.684;23.260;2022-08-21T20:14:06;93941.78;;;22.53;95.72
12793;BME280;6460;42.684;23.260;2022-08-21T20:16:35;93946.13;;;22.42;97.12
12793;BME280;6460;42.684;23.260;2022-08-21T20:19:02;93941.59;;;22.48;97.75
12793;BME280;6460;42.684;23.260;2022-08-21T20:21:30;93926.88;;;22.76;96.23
12793;BME280;6460;42.684;23.260;2022-08-21T20:23:57;93930.53;;;22.82;94.51
12793;BME280;6460;42.684;23.260;2022-08-21T20:26:24;93924.75;;;22.80;93.28
12793;BME280;6460;42.684;23.260;2022-08-21T20:28:53;93920.75;;;22.72;92.66
12793;BME280;6460;42.684;23.260;2022-08-21T20:31:21;93923.56;;;22.81;91.48
12793;BME280;6460;42.684;23.260;2022-08-21T20:33:49;93919.84;;;22.75;91.29
12793;BME280;6460;42.684;23.260;2022-08-21T20:36:17;93933.59;;;22.62;93.45
12793;BME280;6460;42.684;23.260;2022-08-21T20:38:44;93932.72;;;22.87;91.54
12793;BME280;6460;42.684;23.260;2022-08-21T20:41:11;93930.69;;;22.79;93.20
12793;BME280;6460;42.684;23.260;2022-08-21T20:43:39;93932.34;;;22.76;93.94
12793;BME280;6460;42.684;23.260;2022-08-21T20:46:08;93942.47;;;22.45;93.70
12793;BME280;6460;42.684;23.260;2022-08-21T20:48:37;93945.19;;;22.01;97.94
12793;BME280;6460;42.684;23.260;2022-08-21T20:51:08;93949.88;;;21.54;100.00
12793;BME280;6460;42.684;23.260;2022-08-21T20:53:44;93953.09;;;21.40;100.00
12793;BME280;6460;42.684;23.260;2022-08-21T20:56:17;93946.75;;;21.18;100.00
12793;BME280;6460;42.684;23.260;2022-08-21T20:58:51;93956.31;;;20.97;100.00
12793;BME280;6460;42.684;23.260;2022-08-21T21:01:23;93947.81;;;20.95;100.00
12793;BME280;6460;42.684;23.260;2022-08-21T21:03:56;93954.16;;;20.92;100.00
12793;BME280;6460;42.684;23.260;2022-08-21T21:06:28;93958.28;;;20.84;100.00
12793;BME280;6460;42.684;23.260;2022-08-21T21:09:03;93953.16;;;20.73;100.00
12793;BME280;6460;42.684;23.260;2022-08-21T21:11:35;93962.81;;;20.49;100.00
12793;BME280;6460;42.684;23.260;2022-08-21T21:14:07;93961.63;;;20.50;100.00
12793;BME280;6460;42.684;23.260;2022-08-21T21:16:40;93957.88;;;20.44;100.00
12793;BME280;6460;42.684;23.260;2022-08-21T21:19:11;93950.09;;;20.30;100.00
12793;BME280;6460;42.684;23.260;2022-08-21T21:21:43;93951.09;;;20.36;100.00
12793;BME280;6460;42.684;23.260;2022-08-21T21:24:16;93960.03;;;20.07;100.00
12793;BME280;6460;42.684;23.260;2022-08-21T21:26:47;93958.84;;;20.08;100.00
12793;BME280;6460;42.684;23.260;2022-08-21T21:29:19;93958.66;;;20.16;100.00
12793;BME280;6460;42.684;23.260;2022-08-21T21:31:50;93960.84;;;19.92;100.00
12793;BME280;6460;42.684;23.260;2022-08-21T21:34:17;93952.69;;;20.04;100.00
12793;BME280;6460;42.684;23.260;2022-08-21T21:36:49;93947.50;;;19.81;100.00
12793;BME280;6460;42.684;23.260;2022-08-21T21:39:24;93954.31;;;19.73;100.00
12793;BME280;6460;42.684;23.260;2022-08-21T21:42:01;93949.53;;;19.77;100.00
12793;BME280;6460;42.684;23.260;2022-08-21T21:44:57;93954.25;;;20.05;100.00
12793;BME280;6460;42.684;23.260;2022-08-21T21:47:36;93958.28;;;20.14;100.00
12793;BME280;6460;42.684;23.260;2022-08-21T21:50:20;93954.47;;;20.11;100.00
12793;BME280;6460;42.684;23.260;2022-08-21T21:53:05;93955.38;;;19.92;100.00
12793;BME280;6460;42.684;23.260;2022-08-21T21:55:49;93958.56;;;19.74;100.00
12793;BME280;6460;42.684;23.260;2022-08-21T21:58:56;93952.75;;;19.72;100.00
12793;BME280;6460;42.684;23.260;2022-08-21T22:01:33;93959.06;;;19.69;100.00
12793;BME280;6460;42.684;23.260;2022-08-21T22:04:11;93963.22;;;19.90;100.00
12793;BME280;6460;42.684;23.260;2022-08-21T22:06:49;93968.72;;;19.41;100.00
12793;BME280;6460;42.684;23.260;2022-08-21T22:09:23;93970.75;;;19.53;100.00
12793;BME280;6460;42.684;23.260;2022-08-21T22:12:02;93966.06;;;19.38;100.00
12793;BME280;6460;42.684;23.260;2022-08-21T22:14:37;93971.16;;;19.36;100.00
12793;BME280;6460;42.684;23.260;2022-08-21T22:17:09;93966.25;;;19.47;100.00
12793;BME280;6460;42.684;23.260;2022-08-21T22:19:44;93957.22;;;19.66;100.00
12793;BME280;6460;42.684;23.260;2022-08-21T22:22:14;93956.97;;;19.61;100.00
12793;BME280;6460;42.684;23.260;2022-08-21T22:24:45;93952.44;;;19.70;100.00
12793;BME280;6460;42.684;23.260;2022-08-21T22:27:17;93955.50;;;19.56;100.00
12793;BME280;6460;42.684;23.260;2022-08-21T22:29:46;93950.16;;;19.52;100.00
12793;BME280;6460;42.684;23.260;2022-08-21T22:32:22;93950.91;;;19.53;100.00
12793;BME280;6460;42.684;23.260;2022-08-21T22:35:09;93952.00;;;19.39;100.00
12793;BME280;6460;42.684;23.260;2022-08-21T22:37:43;93939.19;;;19.40;100.00
12793;BME280;6460;42.684;23.260;2022-08-21T22:40:13;93945.66;;;19.46;100.00
12793;BME280;6460;42.684;23.260;2022-08-21T22:42:40;93938.63;;;19.77;100.00
12793;BME280;6460;42.684;23.260;2022-08-21T22:45:09;93934.31;;;19.92;100.00
12793;BME280;6460;42.684;23.260;2022-08-21T22:47:39;93935.69;;;20.00;100.00
12793;BME280;6460;42.684;23.260;2022-08-21T22:50:18;93936.44;;;20.30;100.00
12793;BME280;6460;42.684;23.260;2022-08-21T22:52:48;93940.06;;;20.11;100.00
12793;BME280;6460;42.684;23.260;2022-08-21T22:55:22;93946.19;;;20.15;100.00
12793;BME280;6460;42.684;23.260;2022-08-21T22:58:00;93937.69;;;20.13;100.00
12793;BME280;6460;42.684;23.260;2022-08-21T23:00:42;93930.41;;;20.22;100.00
12793;BME280;6460;42.684;23.260;2022-08-21T23:03:17;93935.28;;;20.15;100.00
12793;BME280;6460;42.684;23.260;2022-08-21T23:05:46;93941.06;;;20.17;100.00
12793;BME280;6460;42.684;23.260;2022-08-21T23:08:19;93941.22;;;20.26;100.00
12793;BME280;6460;42.684;23.260;2022-08-21T23:10:48;93935.81;;;20.10;100.00
12793;BME280;6460;42.684;23.260;2022-08-21T23:13:17;93944.44;;;19.63;100.00
12793;BME280;6460;42.684;23.260;2022-08-21T23:15:47;93951.44;;;19.64;100.00
12793;BME280;6460;42.684;23.260;2022-08-21T23:18:26;93948.38;;;19.62;100.00
12793;BME280;6460;42.684;23.260;2022-08-21T23:21:03;93941.13;;;19.72;100.00
12793;BME280;6460;42.684;23.260;2022-08-21T23:23:38;93939.75;;;19.47;100.00
12793;BME280;6460;42.684;23.260;2022-08-21T23:26:19;93951.00;;;19.17;100.00
12793;BME280;6460;42.684;23.260;2022-08-21T23:29:02;93957.41;;;19.43;100.00
12793;BME280;6460;42.684;23.260;2022-08-21T23:31:34;93950.47;;;19.38;100.00
12793;BME280;6460;42.684;23.260;2022-08-21T23:34:18;93958.47;;;19.29;100.00
12793;BME280;6460;42.684;23.260;2022-08-21T23:36:59;93961.38;;;19.38;100.00
12793;BME280;6460;42.684;23.260;2022-08-21T23:39:54;93962.63;;;19.34;100.00
12793;BME280;6460;42.684;23.260;2022-08-21T23:42:40;93956.69;;;19.07;100.00
12793;BME280;6460;42.684;23.260;2022-08-21T23:45:18;93947.47;;;19.00;100.00
12793;BME280;6460;42.684;23.260;2022-08-21T23:47:55;93953.94;;;19.07;100.00
12793;BME280;6460;42.684;23.260;2022-08-21T23:50:30;93957.38;;;19.11;100.00
12793;BME280;6460;42.684;23.260;2022-08-21T23:53:09;93948.84;;;19.09;100.00
12793;BME280;6460;42.684;23.260;2022-08-21T23:55:54;93946.66;;;19.36;100.00
12793;BME280;6460;42.684;23.260;2022-08-21T23:58:30;93944.78;;;19.17;100.00
